createdAt,value
2022-10-09T00:01:20.066Z,7.57
2022-10-09T00:03:47.487Z,7.82
2022-10-09T00:06:16.191Z,7.63
2022-10-09T00:08:45.408Z,7.57
2022-10-09T00:11:17.123Z,6.80
2022-10-09T00:13:43.705Z,7.28
2022-10-09T00:16:12.828Z,7.20
2022-10-09T00:18:39.326Z,6.32
2022-10-09T00:21:06.065Z,6.07
2022-10-09T00:23:32.593Z,7.07
2022-10-09T00:26:00.395Z,6.85
2022-10-09T00:28:28.175Z,5.95
2022-10-09T00:30:54.722Z,6.47
2022-10-09T00:33:21.337Z,6.00
2022-10-09T00:35:48.004Z,6.25
2022-10-09T00:38:14.640Z,5.70
2022-10-09T00:40:41.146Z,5.78
2022-10-09T00:43:15.280Z,5.35
2022-10-09T00:45:45.173Z,5.20
2022-10-09T00:48:11.701Z,5.22
2022-10-09T00:50:56.482Z,5.45
2022-10-09T00:53:23.412Z,5.53
2022-10-09T00:55:49.858Z,5.20
2022-10-09T00:58:16.316Z,5.18
2022-10-09T01:00:42.793Z,4.57
2022-10-09T01:03:09.372Z,5.32
2022-10-09T01:05:43.140Z,4.75
2022-10-09T01:08:25.054Z,4.57
2022-10-09T01:11:17.096Z,4.68
2022-10-09T01:13:57.931Z,4.75
2022-10-09T01:16:29.223Z,4.50
2022-10-09T01:19:20.944Z,4.38
2022-10-09T01:21:54.042Z,4.55
2022-10-09T01:24:29.000Z,3.90
2022-10-09T01:27:23.508Z,3.83
2022-10-09T01:30:16.754Z,4.25
2022-10-09T01:32:44.121Z,3.80
2022-10-09T01:35:11.334Z,3.75
2022-10-09T01:37:37.841Z,3.88
2022-10-09T01:40:05.000Z,3.70
2022-10-09T01:42:31.682Z,3.83
2022-10-09T01:44:58.145Z,3.42
2022-10-09T01:47:24.675Z,3.38
2022-10-09T01:49:54.014Z,3.40
2022-10-09T01:52:40.417Z,3.47
2022-10-09T01:55:20.238Z,3.65
2022-10-09T01:58:07.472Z,3.30
2022-10-09T02:00:37.037Z,2.80
2022-10-09T02:03:04.798Z,3.20
2022-10-09T02:05:31.343Z,3.10
2022-10-09T02:07:58.092Z,2.92
2022-10-09T02:10:24.638Z,2.92
2022-10-09T02:12:56.383Z,2.63
2022-10-09T02:15:24.658Z,2.97
2022-10-09T02:17:51.120Z,2.47
2022-10-09T02:20:34.679Z,2.60
2022-10-09T02:23:02.525Z,2.90
2022-10-09T02:25:29.037Z,2.58
2022-10-09T02:27:55.779Z,2.42
2022-10-09T02:30:22.243Z,2.40
2022-10-09T02:32:54.679Z,2.38
2022-10-09T02:35:21.288Z,2.63
2022-10-09T02:37:49.106Z,2.25
2022-10-09T02:40:15.747Z,2.20
2022-10-09T02:42:42.194Z,2.05
2022-10-09T02:45:09.395Z,2.08
2022-10-09T02:47:35.902Z,2.25
2022-10-09T02:50:02.368Z,2.03
2022-10-09T02:52:28.822Z,2.15
2022-10-09T02:54:55.270Z,2.20
2022-10-09T02:57:21.722Z,2.03
2022-10-09T02:59:48.573Z,2.30
2022-10-09T03:02:15.128Z,1.83
2022-10-09T03:04:41.632Z,1.85
2022-10-09T03:07:08.089Z,1.80
2022-10-09T03:09:34.568Z,1.70
2022-10-09T03:12:01.020Z,1.65
2022-10-09T03:14:27.484Z,1.60
2022-10-09T03:16:53.987Z,1.85
2022-10-09T03:19:20.447Z,1.90
2022-10-09T03:21:46.912Z,1.58
2022-10-09T03:24:13.496Z,1.83
2022-10-09T03:26:40.263Z,1.65
2022-10-09T03:29:06.740Z,1.77
2022-10-09T03:31:51.246Z,1.40
2022-10-09T03:34:19.221Z,1.70
2022-10-09T03:36:45.738Z,1.60
2022-10-09T03:39:12.200Z,1.35
2022-10-09T03:41:38.674Z,1.20
2022-10-09T03:44:05.290Z,1.42
2022-10-09T03:46:31.816Z,1.50
2022-10-09T03:48:58.350Z,1.27
2022-10-09T03:51:24.803Z,1.25
2022-10-09T03:53:51.261Z,1.33
2022-10-09T03:56:17.725Z,1.30
2022-10-09T03:58:44.188Z,1.05
2022-10-09T04:01:10.695Z,1.35
2022-10-09T04:03:37.262Z,1.33
2022-10-09T04:06:03.746Z,1.10
2022-10-09T04:08:30.208Z,1.10
2022-10-09T04:10:58.212Z,1.40
2022-10-09T04:13:24.716Z,1.40
2022-10-09T04:15:52.110Z,1.05
2022-10-09T04:18:18.804Z,1.05
2022-10-09T04:20:52.986Z,1.30
2022-10-09T04:23:20.086Z,1.10
2022-10-09T04:25:46.565Z,1.38
2022-10-09T04:28:13.068Z,1.33
2022-10-09T04:30:39.689Z,1.20
2022-10-09T04:33:10.450Z,1.30
2022-10-09T04:35:44.176Z,1.13
2022-10-09T04:38:10.664Z,1.20
2022-10-09T04:40:37.511Z,1.30
2022-10-09T04:43:04.096Z,1.23
2022-10-09T04:45:30.589Z,1.25
2022-10-09T04:47:58.225Z,1.23
2022-10-09T04:50:24.717Z,1.48
2022-10-09T04:52:51.567Z,1.02
2022-10-09T04:55:18.159Z,1.20
2022-10-09T04:57:44.635Z,1.02
2022-10-09T05:00:11.912Z,1.05
2022-10-09T05:02:38.447Z,1.00
2022-10-09T05:05:05.246Z,1.13
2022-10-09T05:07:31.720Z,1.00
2022-10-09T05:09:58.208Z,1.00
2022-10-09T05:12:24.742Z,1.00
2022-10-09T05:14:51.195Z,1.00
2022-10-09T05:17:22.058Z,1.10
2022-10-09T05:19:49.539Z,1.00
2022-10-09T05:22:15.991Z,1.20
2022-10-09T05:24:42.430Z,1.10
2022-10-09T05:27:08.953Z,0.90
2022-10-09T05:29:35.412Z,0.80
2022-10-09T05:32:02.005Z,0.80
2022-10-09T05:34:28.542Z,1.02
2022-10-09T05:36:55.023Z,0.77
2022-10-09T05:39:21.488Z,0.73
2022-10-09T05:41:47.971Z,0.80
2022-10-09T05:44:16.504Z,0.90
2022-10-09T05:46:42.968Z,0.80
2022-10-09T05:49:09.639Z,0.95
2022-10-09T05:51:37.309Z,0.77
2022-10-09T05:54:04.101Z,0.93
2022-10-09T05:56:32.171Z,0.90
2022-10-09T05:59:02.749Z,0.80
2022-10-09T06:01:31.347Z,1.10
2022-10-09T06:03:58.513Z,0.70
2022-10-09T06:06:26.756Z,0.80
2022-10-09T06:08:53.234Z,0.80
2022-10-09T06:11:24.617Z,0.80
2022-10-09T06:13:51.329Z,0.70
2022-10-09T06:16:18.034Z,0.70
2022-10-09T06:18:49.383Z,0.65
2022-10-09T06:21:16.364Z,0.90
2022-10-09T06:23:42.981Z,0.80
2022-10-09T06:26:11.532Z,0.60
2022-10-09T06:28:38.161Z,0.43
2022-10-09T06:31:06.567Z,0.77
2022-10-09T06:33:34.184Z,0.75
2022-10-09T06:36:09.708Z,0.65
2022-10-09T06:38:37.231Z,1.00
2022-10-09T06:41:04.530Z,0.85
2022-10-09T06:43:31.003Z,0.80
2022-10-09T06:46:00.515Z,0.70
2022-10-09T06:48:29.772Z,0.60
2022-10-09T06:50:56.435Z,0.93
2022-10-09T06:53:22.902Z,0.80
2022-10-09T06:55:53.528Z,0.68
2022-10-09T06:58:20.162Z,0.70
2022-10-09T07:00:46.772Z,0.60
2022-10-09T07:03:13.580Z,0.73
2022-10-09T07:05:40.087Z,0.70
2022-10-09T07:08:06.551Z,0.65
2022-10-09T07:10:33.007Z,0.80
2022-10-09T07:12:59.524Z,0.63
2022-10-09T07:15:26.047Z,0.50
2022-10-09T07:17:52.525Z,0.52
2022-10-09T07:20:19.045Z,0.85
2022-10-09T07:22:45.535Z,0.73
2022-10-09T07:25:12.274Z,1.08
2022-10-09T07:27:38.762Z,0.80
2022-10-09T07:30:05.753Z,1.08
2022-10-09T07:32:32.206Z,1.00
2022-10-09T07:34:58.656Z,0.85
2022-10-09T07:37:25.446Z,0.85
2022-10-09T07:39:51.915Z,1.58
2022-10-09T07:42:18.377Z,1.30
2022-10-09T07:44:44.890Z,2.20
2022-10-09T07:47:11.364Z,2.40
2022-10-09T07:49:37.823Z,6.75
2022-10-09T07:52:04.309Z,9.02
2022-10-09T07:54:30.776Z,10.75
2022-10-09T07:56:57.236Z,10.20
2022-10-09T07:59:23.734Z,10.65
2022-10-09T08:01:50.234Z,10.00
2022-10-09T08:04:16.705Z,9.73
2022-10-09T08:06:43.266Z,2.88
2022-10-09T08:09:09.804Z,2.35
2022-10-09T08:11:40.434Z,2.20
2022-10-09T08:14:07.511Z,2.08
2022-10-09T08:16:33.986Z,2.05
2022-10-09T08:19:00.748Z,1.48
2022-10-09T08:21:28.464Z,1.70
2022-10-09T08:23:56.189Z,1.55
2022-10-09T08:26:23.201Z,1.40
2022-10-09T08:28:54.775Z,1.70
2022-10-09T08:31:21.445Z,1.70
2022-10-09T08:33:48.063Z,1.65
2022-10-09T08:36:17.395Z,1.90
2022-10-09T08:38:48.100Z,1.60
2022-10-09T08:41:19.738Z,1.60
2022-10-09T08:43:48.016Z,1.65
2022-10-09T08:46:35.128Z,1.70
2022-10-09T08:49:02.076Z,2.15
2022-10-09T08:51:29.606Z,1.67
2022-10-09T08:54:03.627Z,1.90
2022-10-09T08:58:56.504Z,1.70
2022-10-09T09:02:07.616Z,1.50
2022-10-09T09:04:59.703Z,1.42
2022-10-09T09:07:46.933Z,1.30
2022-10-09T09:10:46.091Z,1.27
2022-10-09T09:13:23.978Z,1.30
2022-10-09T09:15:55.438Z,1.50
2022-10-09T09:18:32.859Z,1.38
2022-10-09T09:21:22.212Z,1.23
2022-10-09T09:23:48.852Z,1.70
2022-10-09T09:26:20.123Z,1.30
2022-10-09T09:28:47.144Z,1.25
2022-10-09T09:31:17.667Z,1.35
2022-10-09T09:33:49.318Z,1.50
2022-10-09T09:36:21.216Z,1.48
2022-10-09T09:39:32.441Z,1.05
2022-10-09T09:41:35.031Z,1.30
2022-10-09T09:44:01.734Z,1.30
2022-10-09T09:46:30.001Z,1.20
2022-10-09T09:48:56.365Z,1.33
2022-10-09T09:51:28.920Z,1.20
2022-10-09T09:53:57.836Z,1.30
2022-10-09T09:57:06.980Z,1.20
2022-10-09T09:59:39.914Z,1.20
2022-10-09T10:02:06.349Z,1.27
2022-10-09T10:04:32.847Z,1.20
2022-10-09T10:06:59.442Z,0.93
2022-10-09T10:09:27.024Z,1.20
2022-10-09T10:12:04.095Z,1.02
2022-10-09T10:14:30.886Z,1.17
2022-10-09T10:16:57.975Z,1.23
2022-10-09T10:19:31.533Z,1.30
2022-10-09T10:21:59.711Z,1.00
2022-10-09T10:24:49.422Z,1.10
2022-10-09T10:27:30.148Z,1.10
2022-10-09T10:29:59.196Z,1.05
2022-10-09T10:33:07.694Z,1.15
2022-10-09T10:35:36.309Z,1.20
2022-10-09T10:38:13.495Z,1.33
2022-10-09T10:41:03.479Z,1.40
2022-10-09T10:43:40.959Z,1.00
2022-10-09T10:46:29.163Z,1.00
2022-10-09T10:48:55.673Z,1.23
2022-10-09T10:51:42.270Z,0.93
2022-10-09T10:54:11.697Z,1.15
2022-10-09T10:56:40.915Z,1.13
2022-10-09T10:59:29.396Z,1.15
2022-10-09T11:02:23.760Z,1.30
2022-10-09T11:05:15.275Z,1.27
2022-10-09T11:08:03.149Z,1.05
2022-10-09T11:10:35.445Z,1.17
2022-10-09T11:13:32.417Z,0.95
2022-10-09T11:16:36.399Z,1.00
2022-10-09T11:19:17.448Z,1.25
2022-10-09T11:22:16.736Z,1.38
2022-10-09T11:24:46.228Z,1.00
2022-10-09T11:27:31.132Z,1.35
2022-10-09T11:30:00.466Z,0.80
2022-10-09T11:32:34.935Z,0.95
2022-10-09T11:35:17.009Z,1.30
2022-10-09T11:37:43.705Z,1.23
2022-10-09T11:40:18.143Z,0.80
2022-10-09T11:42:46.817Z,1.17
2022-10-09T11:45:42.801Z,1.48
2022-10-09T11:48:30.803Z,1.17
2022-10-09T11:51:32.276Z,0.90
2022-10-09T11:53:58.809Z,1.23
2022-10-09T11:56:29.926Z,0.90
2022-10-09T11:58:57.249Z,1.10
2022-10-09T12:01:26.676Z,0.95
2022-10-09T12:04:05.883Z,0.90
2022-10-09T12:06:32.540Z,0.80
2022-10-09T12:09:03.476Z,0.82
2022-10-09T12:11:29.980Z,1.13
2022-10-09T12:13:58.257Z,0.93
2022-10-09T12:16:44.806Z,0.70
2022-10-09T12:19:36.103Z,0.80
2022-10-09T12:22:36.458Z,0.85
2022-10-09T12:25:17.344Z,0.70
2022-10-09T12:27:43.807Z,1.02
2022-10-09T12:30:14.096Z,0.80
2022-10-09T12:32:44.456Z,0.70
2022-10-09T12:35:27.192Z,0.90
2022-10-09T12:37:53.673Z,0.80
2022-10-09T12:40:24.008Z,0.93
2022-10-09T12:42:52.233Z,0.77
2022-10-09T12:45:30.317Z,0.65
2022-10-09T12:48:08.144Z,0.60
2022-10-09T12:50:34.891Z,0.80
2022-10-09T12:53:13.461Z,0.70
2022-10-09T12:55:50.881Z,0.70
2022-10-09T12:58:33.372Z,0.88
2022-10-09T13:01:01.153Z,0.88
2022-10-09T13:03:34.948Z,0.68
2022-10-09T13:06:02.852Z,0.80
2022-10-09T13:08:31.036Z,0.75
2022-10-09T13:11:17.161Z,11.35
2022-10-09T13:13:47.952Z,3.88
2022-10-09T13:16:14.840Z,2.60
2022-10-09T13:18:41.346Z,2.80
2022-10-09T13:21:22.299Z,2.50
2022-10-09T13:23:48.858Z,2.13
2022-10-09T13:26:28.894Z,2.20
2022-10-09T13:28:55.617Z,2.42
2022-10-09T13:31:22.153Z,1.95
2022-10-09T13:33:48.802Z,1.05
2022-10-09T13:36:16.364Z,1.23
2022-10-09T13:38:43.478Z,1.10
2022-10-09T13:41:14.612Z,1.00
2022-10-09T13:43:41.109Z,1.00
2022-10-09T13:46:07.696Z,0.80
2022-10-09T13:48:34.264Z,0.80
2022-10-09T13:51:00.812Z,1.08
2022-10-09T13:53:27.869Z,1.00
2022-10-09T13:55:58.469Z,0.90
2022-10-09T13:58:27.691Z,0.88
2022-10-09T14:00:54.294Z,0.88
2022-10-09T14:03:21.183Z,0.73
2022-10-09T14:05:47.673Z,0.95
2022-10-09T14:08:14.153Z,0.90
2022-10-09T14:10:44.025Z,0.75
2022-10-09T14:13:10.926Z,0.90
2022-10-09T14:15:40.995Z,0.88
2022-10-09T14:18:07.830Z,0.88
2022-10-09T14:20:34.884Z,0.60
2022-10-09T14:23:01.577Z,0.52
2022-10-09T14:25:28.033Z,1.00
2022-10-09T14:27:54.495Z,0.73
2022-10-09T14:30:21.003Z,1.10
2022-10-09T14:32:47.770Z,0.90
2022-10-09T14:35:18.250Z,0.55
2022-10-09T14:37:47.846Z,0.90
2022-10-09T14:40:14.324Z,0.60
2022-10-09T14:42:40.809Z,0.55
2022-10-09T14:45:08.082Z,0.70
2022-10-09T14:47:34.545Z,0.68
2022-10-09T14:50:01.023Z,0.60
2022-10-09T14:52:27.484Z,0.70
2022-10-09T14:54:53.939Z,0.50
2022-10-09T14:57:20.391Z,0.77
2022-10-09T14:59:46.834Z,0.60
2022-10-09T15:02:15.533Z,0.90
2022-10-09T15:04:42.516Z,0.60
2022-10-09T15:07:09.468Z,0.50
2022-10-09T15:09:36.200Z,0.60
2022-10-09T15:12:03.030Z,0.40
2022-10-09T15:14:29.645Z,0.70
2022-10-09T15:17:10.519Z,0.65
2022-10-09T15:19:38.886Z,0.52
2022-10-09T15:22:05.551Z,0.77
2022-10-09T15:24:32.484Z,0.75
2022-10-09T15:26:59.455Z,0.73
2022-10-09T15:29:26.504Z,0.82
2022-10-09T15:31:53.265Z,0.90
2022-10-09T15:34:19.975Z,0.75
2022-10-09T15:36:47.136Z,0.68
2022-10-09T15:39:14.251Z,0.70
2022-10-09T15:41:42.173Z,0.88
2022-10-09T15:44:19.868Z,0.50
2022-10-09T15:46:47.281Z,0.90
2022-10-09T15:49:13.780Z,1.15
2022-10-09T15:51:40.322Z,1.20
2022-10-09T15:54:06.948Z,1.58
2022-10-09T15:56:37.441Z,1.50
2022-10-09T15:59:06.297Z,1.50
2022-10-09T16:01:33.134Z,1.77
2022-10-09T16:03:59.647Z,1.70
2022-10-09T16:06:26.147Z,1.70
2022-10-09T16:08:55.575Z,1.90
2022-10-09T16:11:25.166Z,1.90
2022-10-09T16:13:53.166Z,1.90
2022-10-09T16:16:22.464Z,1.83
2022-10-09T16:18:48.975Z,1.75
2022-10-09T16:21:20.652Z,1.55
2022-10-09T16:23:48.197Z,1.52
2022-10-09T16:26:17.062Z,1.83
2022-10-09T16:28:44.583Z,2.90
2022-10-09T16:31:24.522Z,3.38
2022-10-09T16:33:51.399Z,4.30
2022-10-09T16:36:18.592Z,5.40
2022-10-09T16:38:45.221Z,5.55
2022-10-09T16:41:17.830Z,6.30
2022-10-09T16:43:45.420Z,5.70
2022-10-09T16:46:26.125Z,6.28
2022-10-09T16:48:53.289Z,6.03
2022-10-09T16:51:25.257Z,5.93
2022-10-09T16:53:56.106Z,6.35
2022-10-09T16:56:24.211Z,6.72
2022-10-09T16:58:53.914Z,7.10
2022-10-09T17:01:20.383Z,6.80
2022-10-09T17:03:46.938Z,7.00
2022-10-09T17:06:14.967Z,6.68
2022-10-09T17:08:41.477Z,6.88
2022-10-09T17:11:08.849Z,6.70
2022-10-09T17:13:35.896Z,6.53
2022-10-09T17:16:12.269Z,6.45
2022-10-09T17:18:42.259Z,6.40
2022-10-09T17:21:10.252Z,6.38
2022-10-09T17:23:36.728Z,6.13
2022-10-09T17:26:13.692Z,6.03
2022-10-09T17:28:40.664Z,5.57
2022-10-09T17:31:09.054Z,5.97
2022-10-09T17:33:41.009Z,6.18
2022-10-09T17:36:11.303Z,5.55
2022-10-09T17:38:37.821Z,5.03
2022-10-09T17:41:07.741Z,5.53
2022-10-09T17:43:34.270Z,5.38
2022-10-09T17:46:00.903Z,5.38
2022-10-09T17:48:27.903Z,4.70
2022-10-09T17:50:55.520Z,4.63
2022-10-09T17:53:24.557Z,5.07
2022-10-09T17:55:52.273Z,4.03
2022-10-09T17:58:19.225Z,4.50
2022-10-09T18:00:46.331Z,4.43
2022-10-09T18:03:12.945Z,3.92
2022-10-09T18:05:43.266Z,4.10
2022-10-09T18:08:09.760Z,4.30
2022-10-09T18:10:39.040Z,4.63
2022-10-09T18:13:06.340Z,4.30
2022-10-09T18:15:39.701Z,3.95
2022-10-09T18:18:06.637Z,3.85
2022-10-09T18:20:36.782Z,4.05
2022-10-09T18:23:03.781Z,3.92
2022-10-09T18:25:30.434Z,3.78
2022-10-09T18:27:56.887Z,3.63
2022-10-09T18:30:23.343Z,3.60
2022-10-09T18:32:50.071Z,3.38
2022-10-09T18:35:16.792Z,3.22
2022-10-09T18:37:43.259Z,3.75
2022-10-09T18:40:09.920Z,3.70
2022-10-09T18:42:36.447Z,4.03
2022-10-09T18:45:03.254Z,4.32
2022-10-09T18:47:32.501Z,5.30
2022-10-09T18:49:59.223Z,6.20
2022-10-09T18:52:25.709Z,5.90
2022-10-09T18:54:53.042Z,7.28
2022-10-09T18:57:20.623Z,7.65
2022-10-09T18:59:47.146Z,9.57
2022-10-09T19:02:13.612Z,8.13
2022-10-09T19:04:40.070Z,9.40
2022-10-09T19:07:06.566Z,9.77
2022-10-09T19:09:34.745Z,9.50
2022-10-09T19:12:01.307Z,9.88
2022-10-09T19:14:27.832Z,10.73
2022-10-09T19:16:54.337Z,10.93
2022-10-09T19:19:20.793Z,10.60
2022-10-09T19:21:47.287Z,10.48
2022-10-09T19:24:13.833Z,10.25
2022-10-09T19:26:40.476Z,13.65
2022-10-09T19:29:07.147Z,20.38
2022-10-09T19:31:34.972Z,24.20
2022-10-09T19:34:02.187Z,22.45
2022-10-09T19:36:33.175Z,23.65
2022-10-09T19:39:00.695Z,24.08
2022-10-09T19:41:27.268Z,23.00
2022-10-09T19:43:53.800Z,23.70
2022-10-09T19:46:22.545Z,22.98
2022-10-09T19:48:50.250Z,21.90
2022-10-09T19:51:20.706Z,21.48
2022-10-09T19:53:47.312Z,22.17
2022-10-09T19:56:15.772Z,20.50
2022-10-09T19:58:42.867Z,20.92
2022-10-09T20:01:11.084Z,20.67
2022-10-09T20:03:38.512Z,20.40
2022-10-09T20:06:05.322Z,19.05
2022-10-09T20:08:31.791Z,18.52
2022-10-09T20:11:03.974Z,17.85
2022-10-09T20:13:31.388Z,17.77
2022-10-09T20:16:01.234Z,15.63
2022-10-09T20:18:27.709Z,16.05
2022-10-09T20:20:54.178Z,16.00
2022-10-09T20:23:20.670Z,14.30
2022-10-09T20:25:50.278Z,14.75
2022-10-09T20:28:16.800Z,15.18
2022-10-09T20:30:43.312Z,13.40
2022-10-09T20:33:09.811Z,13.82
2022-10-09T20:35:43.312Z,13.30
2022-10-09T20:38:10.167Z,13.20
2022-10-09T20:40:36.619Z,12.52
2022-10-09T20:43:03.159Z,12.82
2022-10-09T20:45:29.626Z,12.75
2022-10-09T20:47:56.111Z,11.85
2022-10-09T20:50:22.632Z,12.07
2022-10-09T20:52:50.580Z,11.70
2022-10-09T20:55:17.318Z,11.70
2022-10-09T20:57:43.784Z,11.25
2022-10-09T21:00:10.775Z,10.38
2022-10-09T21:02:37.248Z,10.00
2022-10-09T21:05:03.836Z,9.82
2022-10-09T21:07:31.584Z,9.93
2022-10-09T21:09:58.108Z,10.20
2022-10-09T21:12:24.557Z,8.80
2022-10-09T21:14:51.019Z,8.35
2022-10-09T21:17:17.488Z,8.07
2022-10-09T21:19:43.938Z,8.52
2022-10-09T21:22:10.439Z,8.30
2022-10-09T21:24:36.890Z,8.35
2022-10-09T21:27:03.419Z,8.10
2022-10-09T21:29:29.907Z,8.25
2022-10-09T21:31:56.375Z,7.82
2022-10-09T21:34:22.839Z,7.05
2022-10-09T21:37:20.990Z,6.75
2022-10-09T21:39:36.348Z,6.47
2022-10-09T21:42:02.830Z,6.93
2022-10-09T21:44:30.026Z,6.13
2022-10-09T21:46:56.503Z,6.53
2022-10-09T21:49:24.284Z,5.85
2022-10-09T21:51:51.009Z,5.80
2022-10-09T21:54:17.530Z,5.88
2022-10-09T21:56:44.043Z,6.05
2022-10-09T21:59:10.523Z,5.38
2022-10-09T22:01:37.050Z,5.15
2022-10-09T22:04:03.634Z,5.88
2022-10-09T22:06:30.167Z,4.95
2022-10-09T22:08:56.618Z,5.00
2022-10-09T22:11:23.151Z,4.40
2022-10-09T22:13:49.962Z,5.05
2022-10-09T22:16:16.501Z,4.68
2022-10-09T22:18:43.051Z,4.43
2022-10-09T22:21:11.927Z,4.97
2022-10-09T22:23:38.464Z,4.20
2022-10-09T22:26:17.020Z,4.15
2022-10-09T22:28:44.286Z,4.20
2022-10-09T22:31:14.989Z,3.80
2022-10-09T22:33:41.661Z,3.88
2022-10-09T22:36:13.278Z,3.50
2022-10-09T22:38:39.871Z,3.25
2022-10-09T22:41:11.029Z,3.70
2022-10-09T22:43:37.726Z,3.90
2022-10-09T22:46:05.909Z,3.53
2022-10-09T22:48:32.486Z,3.40
2022-10-09T22:51:01.563Z,3.35
2022-10-09T22:53:28.032Z,3.42
2022-10-09T22:55:54.487Z,3.00
2022-10-09T22:58:20.966Z,3.15
2022-10-09T23:00:47.528Z,3.03
2022-10-09T23:03:14.003Z,3.40
2022-10-09T23:05:40.485Z,3.33
2022-10-09T23:08:06.962Z,3.03
2022-10-09T23:10:37.618Z,3.08
2022-10-09T23:13:04.512Z,2.55
2022-10-09T23:15:31.224Z,2.60
2022-10-09T23:17:57.859Z,2.58
2022-10-09T23:20:24.316Z,2.55
2022-10-09T23:22:51.076Z,2.40
2022-10-09T23:25:17.845Z,2.58
2022-10-09T23:27:44.328Z,2.67
2022-10-09T23:30:11.173Z,2.45
2022-10-09T23:32:37.635Z,2.78
2022-10-09T23:35:04.367Z,2.20
2022-10-09T23:37:30.852Z,2.20
2022-10-09T23:39:57.461Z,2.15
2022-10-09T23:42:23.961Z,2.33
2022-10-09T23:44:50.478Z,2.50
2022-10-09T23:47:16.954Z,2.20
2022-10-09T23:49:43.408Z,2.35
2022-10-09T23:52:09.882Z,2.15
2022-10-09T23:54:36.332Z,1.98
2022-10-09T23:57:02.842Z,2.15
2022-10-09T23:59:29.336Z,1.88
